Time;durP1;ratioP1;P1;durP2;ratioP2;P2;SDS_P1;SDS_P2;PMS_P1;PMS_P2;Temp;Humidity;BMP_temperature;BMP_pressure;BME280_temperature;BME280_humidity;BME280_pressure;Samples;Min_cycle;Max_cycle;Signal;HPM_P1;HPM_P2
2022/07/08 00:00:13;;;;;;;1.90;1.80;;;17.20;99.90;;;;;;5048572;28;20203;-79
2022/07/08 00:02:40;;;;;;;1.90;1.80;;;17.10;99.90;;;;;;5041784;28;20230;-78
2022/07/08 00:05:08;;;;;;;1.97;1.67;;;17.10;99.90;;;;;;5041736;28;20196;-79
2022/07/08 00:07:34;;;;;;;2.20;2.00;;;17.10;99.90;;;;;;5042093;28;20218;-79
2022/07/08 00:10:01;;;;;;;4.40;4.10;;;17.10;99.90;;;;;;5032920;28;20219;-80
2022/07/08 00:12:28;;;;;;;5.27;4.97;;;17.10;99.90;;;;;;5041624;28;20207;-80
2022/07/08 00:14:56;;;;;;;5.43;5.13;;;17.10;99.90;;;;;;5040882;28;20647;-79
2022/07/08 00:17:23;;;;;;;5.23;4.93;;;17.10;99.90;;;;;;5041852;28;20199;-79
2022/07/08 00:19:50;;;;;;;5.23;4.83;;;17.10;99.90;;;;;;5041879;28;20184;-79
2022/07/08 00:22:17;;;;;;;5.40;5.00;;;17.10;99.90;;;;;;5033349;28;20201;-79
2022/07/08 00:24:44;;;;;;;7.43;5.43;;;17.10;99.90;;;;;;5033660;28;20694;-80
2022/07/08 00:27:10;;;;;;;5.27;4.97;;;17.10;99.90;;;;;;5041773;28;20213;-79
2022/07/08 00:29:38;;;;;;;5.07;4.77;;;17.10;99.90;;;;;;5036303;28;20219;-80
2022/07/08 00:32:07;;;;;;;5.20;4.90;;;17.10;99.90;;;;;;5027023;28;20263;-80
2022/07/08 00:34:34;;;;;;;5.77;5.37;;;17.00;99.90;;;;;;5042045;28;20308;-79
2022/07/08 00:37:01;;;;;;;5.87;5.37;;;17.00;99.90;;;;;;5041841;28;20230;-79
2022/07/08 00:39:28;;;;;;;9.60;5.37;;;16.90;99.90;;;;;;5039460;28;20206;-79
2022/07/08 00:41:55;;;;;;;6.80;5.20;;;16.90;99.90;;;;;;5041706;28;20206;-79
2022/07/08 00:44:22;;;;;;;5.60;5.20;;;16.90;99.90;;;;;;5046398;28;20217;-79
2022/07/08 00:46:48;;;;;;;5.27;4.67;;;16.80;99.90;;;;;;5029466;28;20234;-79
2022/07/08 00:49:17;;;;;;;6.37;5.17;;;16.70;99.90;;;;;;5039907;28;20214;-79
2022/07/08 00:51:44;;;;;;;7.50;5.57;;;16.70;99.90;;;;;;5041307;28;20220;-79
2022/07/08 00:54:14;;;;;;;5.30;4.90;;;16.70;99.90;;;;;;5041094;28;20219;-79
2022/07/08 00:56:42;;;;;;;11.97;7.03;;;16.60;99.90;;;;;;5041677;28;20722;-80
2022/07/08 00:59:09;;;;;;;7.80;6.30;;;16.60;99.90;;;;;;5028693;28;20239;-79
2022/07/08 01:01:36;;;;;;;7.93;6.03;;;16.50;99.90;;;;;;5041518;28;20216;-79
2022/07/08 01:04:03;;;;;;;6.37;4.90;;;16.40;99.90;;;;;;5038736;28;20226;-79
2022/07/08 01:06:32;;;;;;;8.53;4.13;;;16.30;99.90;;;;;;5036172;28;20249;-79
2022/07/08 01:08:59;;;;;;;6.80;4.80;;;16.20;99.90;;;;;;5037430;28;20211;-79
2022/07/08 01:11:27;;;;;;;8.30;4.97;;;16.20;99.90;;;;;;5039740;28;20251;-79
2022/07/08 01:13:54;;;;;;;6.53;4.80;;;16.30;99.90;;;;;;5040510;28;20207;-79
2022/07/08 01:16:20;;;;;;;6.03;4.60;;;16.20;99.90;;;;;;5036232;28;20196;-79
2022/07/08 01:18:47;;;;;;;6.00;4.10;;;16.10;99.90;;;;;;5021813;28;20186;-79
2022/07/08 01:21:16;;;;;;;6.83;3.90;;;16.10;99.90;;;;;;5021825;28;20265;-79
2022/07/08 01:23:43;;;;;;;6.40;4.10;;;16.10;99.90;;;;;;5021094;28;20233;-79
2022/07/08 01:26:12;;;;;;;6.73;4.17;;;16.10;99.90;;;;;;5022887;28;20203;-83
2022/07/08 01:28:41;;;;;;;5.53;3.90;;;16.00;99.90;;;;;;5032012;28;20218;-79
2022/07/08 01:31:08;;;;;;;7.37;4.03;;;16.00;99.90;;;;;;5045040;28;20199;-79
2022/07/08 01:33:35;;;;;;;5.00;3.53;;;15.90;99.90;;;;;;5040480;28;20684;-79
2022/07/08 01:36:02;;;;;;;4.07;3.17;;;15.80;99.90;;;;;;5042980;28;20565;-79
2022/07/08 01:38:30;;;;;;;9.30;3.90;;;15.80;99.90;;;;;;5043581;28;20197;-79
2022/07/08 01:40:57;;;;;;;9.33;3.67;;;15.70;99.90;;;;;;5041945;28;20199;-79
2022/07/08 01:43:25;;;;;;;8.83;4.23;;;15.70;99.90;;;;;;5042168;28;20216;-79
2022/07/08 01:45:52;;;;;;;4.30;3.37;;;15.60;99.90;;;;;;5044761;28;20207;-79
2022/07/08 01:48:18;;;;;;;4.13;3.80;;;15.60;99.90;;;;;;5031228;28;20198;-79
2022/07/08 01:50:45;;;;;;;9.17;3.83;;;15.50;99.90;;;;;;5024254;28;20695;-79
2022/07/08 01:53:12;;;;;;;6.30;4.47;;;15.50;99.90;;;;;;5006284;28;20222;-78
2022/07/08 01:55:41;;;;;;;8.50;4.00;;;15.40;99.90;;;;;;5006588;28;20225;-80
2022/07/08 01:58:08;;;;;;;7.17;4.10;;;15.40;99.90;;;;;;5024419;28;20585;-79
2022/07/08 02:00:35;;;;;;;8.40;3.97;;;15.30;99.90;;;;;;5042298;28;20257;-79
2022/07/08 02:03:01;;;;;;;7.03;4.30;;;15.20;99.90;;;;;;5023362;28;20239;-79
2022/07/08 02:05:28;;;;;;;10.93;4.40;;;15.20;99.90;;;;;;5022844;28;20191;-79
2022/07/08 02:07:55;;;;;;;4.57;4.00;;;15.10;99.90;;;;;;5038699;28;20196;-79
2022/07/08 02:10:22;;;;;;;5.23;3.80;;;15.00;99.90;;;;;;5043578;28;20223;-79
2022/07/08 02:12:53;;;;;;;5.97;3.77;;;15.00;99.90;;;;;;5048326;28;20211;-79
2022/07/08 02:15:20;;;;;;;6.03;4.10;;;15.00;99.90;;;;;;5035518;28;20239;-79
2022/07/08 02:17:47;;;;;;;6.10;3.97;;;15.00;99.90;;;;;;5042952;28;20186;-78
2022/07/08 02:20:14;;;;;;;4.73;3.57;;;14.90;99.90;;;;;;5047289;28;20192;-79
2022/07/08 02:22:42;;;;;;;6.23;3.60;;;14.90;99.90;;;;;;5023475;28;20223;-79
2022/07/08 02:25:09;;;;;;;8.10;4.20;;;14.90;99.90;;;;;;5023784;28;20738;-79
2022/07/08 02:27:36;;;;;;;7.33;3.57;;;14.90;99.90;;;;;;5024749;28;20195;-79
2022/07/08 02:30:06;;;;;;;5.43;3.60;;;14.80;99.90;;;;;;5025368;28;20613;-80
2022/07/08 02:32:32;;;;;;;5.77;3.80;;;14.90;99.90;;;;;;5042450;28;20193;-79
2022/07/08 02:34:59;;;;;;;4.03;3.50;;;14.90;99.90;;;;;;5039358;28;20262;-79
2022/07/08 02:37:26;;;;;;;5.33;3.57;;;14.90;99.90;;;;;;5037290;28;20618;-79
2022/07/08 02:39:53;;;;;;;5.50;3.63;;;14.90;99.90;;;;;;5034915;28;20188;-79
2022/07/08 02:42:20;;;;;;;4.23;3.43;;;14.80;99.90;;;;;;5036721;28;20204;-79
2022/07/08 02:44:46;;;;;;;7.03;3.80;;;14.80;99.90;;;;;;5043284;28;20644;-80
2022/07/08 02:47:14;;;;;;;6.57;3.67;;;14.80;99.90;;;;;;5036284;28;20198;-80
2022/07/08 02:49:41;;;;;;;4.17;3.23;;;14.80;99.90;;;;;;5040865;28;20217;-79
2022/07/08 02:52:08;;;;;;;5.37;3.30;;;14.80;99.90;;;;;;5040119;28;20249;-80
2022/07/08 02:54:35;;;;;;;4.63;3.73;;;14.80;99.90;;;;;;5029951;28;20272;-79
2022/07/08 02:57:02;;;;;;;4.77;3.70;;;14.70;99.90;;;;;;5032040;28;20232;-79
2022/07/08 02:59:29;;;;;;;3.87;3.40;;;14.70;99.90;;;;;;5035286;28;20255;-79
2022/07/08 03:01:56;;;;;;;3.50;3.20;;;14.70;99.90;;;;;;5034219;28;20204;-80
2022/07/08 03:04:24;;;;;;;5.90;3.87;;;14.70;99.90;;;;;;5018953;28;20584;-81
2022/07/08 03:06:51;;;;;;;4.80;3.23;;;14.60;99.90;;;;;;5033803;28;20190;-81
2022/07/08 03:09:17;;;;;;;3.90;3.50;;;14.60;99.90;;;;;;5023856;28;20232;-80
2022/07/08 03:11:44;;;;;;;4.10;3.40;;;14.70;99.90;;;;;;5040309;28;20616;-80
2022/07/08 03:14:11;;;;;;;3.43;3.10;;;14.70;99.90;;;;;;5042808;28;20256;-80
2022/07/08 03:16:38;;;;;;;6.77;3.57;;;14.70;99.90;;;;;;5040158;28;20231;-80
2022/07/08 03:19:05;;;;;;;4.97;3.30;;;14.60;99.90;;;;;;5035751;28;20610;-79
2022/07/08 03:21:33;;;;;;;3.57;3.27;;;14.70;99.90;;;;;;5037835;28;20197;-78
2022/07/08 03:24:00;;;;;;;4.27;3.20;;;14.70;99.90;;;;;;5012671;28;20224;-79
2022/07/08 03:26:26;;;;;;;4.33;3.63;;;14.70;99.90;;;;;;5048150;28;20736;-79
2022/07/08 03:28:53;;;;;;;5.50;3.40;;;14.60;99.90;;;;;;5030618;28;20212;-80
2022/07/08 03:31:20;;;;;;;6.03;3.77;;;14.60;99.90;;;;;;5028926;28;20263;-79
2022/07/08 03:33:47;;;;;;;4.10;3.47;;;14.60;99.90;;;;;;5033314;28;20240;-79
2022/07/08 03:36:14;;;;;;;4.30;3.30;;;14.60;99.90;;;;;;5032972;28;20186;-79
2022/07/08 03:38:42;;;;;;;4.40;3.20;;;14.60;99.90;;;;;;5041409;28;20202;-79
2022/07/08 03:41:21;;;;;;;6.43;3.00;;;14.50;99.90;;;;;;5034421;28;20223;-79
2022/07/08 03:43:48;;;;;;;4.90;3.20;;;14.60;99.90;;;;;;5038189;28;20270;-79
2022/07/08 03:46:15;;;;;;;5.77;3.80;;;14.60;99.90;;;;;;5040797;28;20239;-79
2022/07/08 03:48:42;;;;;;;4.13;3.50;;;14.60;99.90;;;;;;5040515;28;20194;-79
2022/07/08 03:51:09;;;;;;;5.30;3.33;;;14.60;99.90;;;;;;5036261;28;20510;-79
2022/07/08 03:53:36;;;;;;;4.33;3.40;;;14.60;99.90;;;;;;5038786;28;20227;-79
2022/07/08 03:56:06;;;;;;;4.80;3.43;;;14.50;99.90;;;;;;5035472;28;20196;-79
2022/07/08 03:58:33;;;;;;;4.83;3.33;;;14.50;99.90;;;;;;5039377;28;20225;-79
2022/07/08 04:01:00;;;;;;;3.47;3.17;;;14.50;99.90;;;;;;5039574;28;20247;-79
2022/07/08 04:03:27;;;;;;;3.87;3.40;;;14.50;99.90;;;;;;5038434;28;20764;-79
2022/07/08 04:05:54;;;;;;;3.90;3.40;;;14.50;99.90;;;;;;5040241;28;20225;-79
2022/07/08 04:08:21;;;;;;;4.23;3.00;;;14.50;99.90;;;;;;5040104;28;20230;-79
2022/07/08 04:10:48;;;;;;;7.00;3.37;;;14.40;99.90;;;;;;5039812;28;20223;-79
2022/07/08 04:13:16;;;;;;;6.60;3.37;;;14.50;99.90;;;;;;5029501;28;20217;-78
2022/07/08 04:15:43;;;;;;;4.73;3.30;;;14.50;99.90;;;;;;5033824;28;20292;-79
2022/07/08 04:18:09;;;;;;;3.97;3.00;;;14.50;99.90;;;;;;5031116;28;20192;-79
2022/07/08 04:20:36;;;;;;;3.53;3.10;;;14.60;99.90;;;;;;5040978;28;20180;-79
2022/07/08 04:23:03;;;;;;;5.10;3.20;;;14.70;99.90;;;;;;5037125;28;20218;-79
2022/07/08 04:25:30;;;;;;;3.10;2.80;;;14.60;99.90;;;;;;5040746;28;20193;-79
2022/07/08 04:27:57;;;;;;;3.67;3.10;;;14.70;99.90;;;;;;5037441;28;20204;-79
2022/07/08 04:30:25;;;;;;;4.70;3.13;;;14.70;99.90;;;;;;5036728;28;20290;-79
2022/07/08 04:32:52;;;;;;;4.03;3.00;;;14.70;99.90;;;;;;5036958;28;20248;-79
2022/07/08 04:35:19;;;;;;;3.37;3.13;;;14.80;99.90;;;;;;5041394;28;20206;-79
2022/07/08 04:37:48;;;;;;;4.83;3.00;;;14.80;99.90;;;;;;5032383;28;20244;-79
2022/07/08 04:40:15;;;;;;;4.23;3.13;;;14.80;99.90;;;;;;5035165;28;20667;-80
2022/07/08 04:42:42;;;;;;;4.47;3.10;;;14.90;99.90;;;;;;5037334;28;20206;-79
2022/07/08 04:45:10;;;;;;;4.33;3.20;;;15.00;99.90;;;;;;5037717;28;20549;-79
2022/07/08 04:47:38;;;;;;;7.03;3.30;;;15.10;99.90;;;;;;5037288;28;20195;-79
2022/07/08 04:50:06;;;;;;;4.10;2.90;;;15.30;99.90;;;;;;5036686;28;20207;-79
2022/07/08 04:52:33;;;;;;;5.23;3.47;;;15.40;99.90;;;;;;5047327;28;20251;-79
2022/07/08 04:54:59;;;;;;;4.07;2.60;;;15.60;99.90;;;;;;5027587;28;20203;-79
2022/07/08 04:57:26;;;;;;;4.60;3.20;;;15.80;99.90;;;;;;5023526;28;20225;-80
2022/07/08 04:59:53;;;;;;;5.87;3.13;;;15.90;99.90;;;;;;5036500;28;20202;-79
2022/07/08 05:02:20;;;;;;;5.30;2.60;;;16.20;99.90;;;;;;5036860;28;20265;-79
2022/07/08 05:04:48;;;;;;;5.00;2.33;;;16.40;99.90;;;;;;5038055;28;20230;-79
2022/07/08 05:07:15;;;;;;;4.07;2.63;;;16.60;99.90;;;;;;5019605;28;20675;-80
2022/07/08 05:09:41;;;;;;;3.97;2.40;;;16.70;99.90;;;;;;5023946;28;20227;-80
2022/07/08 05:12:09;;;;;;;5.13;3.67;;;16.90;99.90;;;;;;5042804;28;20228;-79
2022/07/08 05:14:36;;;;;;;4.77;3.40;;;17.10;99.90;;;;;;5045303;28;20266;-79
2022/07/08 05:17:03;;;;;;;5.43;4.80;;;17.20;99.90;;;;;;5038564;28;20207;-79
2022/07/08 05:19:30;;;;;;;7.03;5.00;;;17.20;99.90;;;;;;5039612;28;20191;-79
2022/07/08 05:21:58;;;;;;;6.13;5.27;;;17.30;99.90;;;;;;5043915;28;20203;-79
2022/07/08 05:24:25;;;;;;;9.60;6.40;;;17.30;99.90;;;;;;5043772;28;20685;-80
2022/07/08 05:26:52;;;;;;;5.30;2.57;;;17.30;99.90;;;;;;5042539;28;20752;-79
2022/07/08 05:29:19;;;;;;;7.00;6.03;;;17.40;99.90;;;;;;5036699;28;20238;-79
2022/07/08 05:31:46;;;;;;;9.30;7.00;;;17.40;99.90;;;;;;5044328;28;20193;-80
2022/07/08 05:34:12;;;;;;;4.50;3.67;;;17.30;99.90;;;;;;5034614;28;20251;-79
2022/07/08 05:36:39;;;;;;;3.70;2.33;;;17.20;99.90;;;;;;5040744;28;20204;-79
2022/07/08 05:39:07;;;;;;;5.07;2.70;;;17.10;99.90;;;;;;5041282;28;20192;-79
2022/07/08 05:41:34;;;;;;;6.73;2.50;;;17.10;99.90;;;;;;5041533;28;20206;-79
2022/07/08 05:44:01;;;;;;;6.67;2.63;;;17.10;99.90;;;;;;5032058;28;20698;-79
2022/07/08 05:46:28;;;;;;;3.53;3.23;;;17.40;99.90;;;;;;5028793;28;20211;-79
2022/07/08 05:48:55;;;;;;;5.43;4.67;;;17.90;99.90;;;;;;5041911;28;20200;-79
2022/07/08 05:51:21;;;;;;;7.20;5.10;;;18.60;99.90;;;;;;5044551;28;20274;-80
2022/07/08 05:53:48;;;;;;;8.07;5.90;;;19.40;99.90;;;;;;5043065;28;20280;-80
2022/07/08 05:56:16;;;;;;;5.60;4.93;;;19.90;99.90;;;;;;5040642;28;20235;-80
2022/07/08 05:58:43;;;;;;;7.07;6.33;;;20.30;99.90;;;;;;5034689;28;20204;-80
2022/07/08 06:01:10;;;;;;;6.57;4.33;;;20.50;99.90;;;;;;5031695;28;20251;-79
2022/07/08 06:03:37;;;;;;;5.30;3.47;;;21.00;99.90;;;;;;5024356;28;20222;-80
2022/07/08 06:06:04;;;;;;;5.70;4.97;;;21.50;99.90;;;;;;5021541;28;20263;-80
2022/07/08 06:08:31;;;;;;;6.33;3.53;;;21.70;99.90;;;;;;5041003;28;20188;-80
2022/07/08 06:10:58;;;;;;;6.33;5.50;;;22.10;99.90;;;;;;5040778;28;20242;-80
2022/07/08 06:13:27;;;;;;;6.60;4.30;;;22.60;99.90;;;;;;5039740;28;20239;-80
2022/07/08 06:15:54;;;;;;;6.77;5.33;;;22.60;99.90;;;;;;5030419;28;20661;-80
2022/07/08 06:18:21;;;;;;;7.50;5.97;;;22.70;99.90;;;;;;5036235;28;20200;-80
2022/07/08 06:20:47;;;;;;;5.40;4.53;;;23.00;99.90;;;;;;5027811;28;20624;-80
2022/07/08 06:23:14;;;;;;;8.73;6.03;;;23.00;99.90;;;;;;5040160;28;20215;-80
2022/07/08 06:25:41;;;;;;;6.17;5.57;;;22.80;99.90;;;;;;5040256;28;20570;-80
2022/07/08 06:28:08;;;;;;;7.67;4.40;;;23.30;99.90;;;;;;5039772;28;20226;-80
2022/07/08 06:30:36;;;;;;;7.33;5.27;;;23.70;99.90;;;;;;5041665;28;20257;-80
2022/07/08 06:33:04;;;;;;;5.53;2.97;;;23.10;99.90;;;;;;5031501;28;20224;-80
2022/07/08 06:35:30;;;;;;;4.93;3.00;;;23.20;99.90;;;;;;5036526;28;20204;-80
2022/07/08 06:37:57;;;;;;;8.17;6.50;;;23.00;99.70;;;;;;5030322;28;20184;-80
2022/07/08 06:40:25;;;;;;;7.53;2.50;;;22.80;99.20;;;;;;5042386;28;20192;-80
2022/07/08 06:42:52;;;;;;;4.73;3.37;;;23.20;99.40;;;;;;5038669;28;20216;-80
2022/07/08 06:45:19;;;;;;;5.97;5.43;;;23.80;98.60;;;;;;5038099;28;20695;-80
2022/07/08 06:47:47;;;;;;;7.80;4.67;;;24.20;99.10;;;;;;5043196;28;20188;-80
2022/07/08 06:50:14;;;;;;;8.13;7.43;;;24.20;96.60;;;;;;5040770;28;20585;-80
2022/07/08 06:52:41;;;;;;;7.07;6.37;;;23.60;98.60;;;;;;5038586;28;20218;-80
2022/07/08 06:55:09;;;;;;;6.60;5.77;;;23.00;98.10;;;;;;5034187;28;20187;-80
2022/07/08 06:57:35;;;;;;;5.40;4.83;;;22.90;99.40;;;;;;5041714;28;20192;-80
2022/07/08 07:00:04;;;;;;;6.87;5.80;;;23.20;98.00;;;;;;5027676;28;20207;-79
2022/07/08 07:02:31;;;;;;;6.17;5.60;;;22.70;97.60;;;;;;5038506;28;20250;-80
2022/07/08 07:04:59;;;;;;;5.80;2.40;;;21.90;98.40;;;;;;5028674;28;20549;-80
2022/07/08 07:07:26;;;;;;;6.63;3.90;;;22.30;99.50;;;;;;5033652;28;20223;-80
2022/07/08 07:09:53;;;;;;;5.60;4.37;;;22.10;98.50;;;;;;5037817;28;20632;-80
2022/07/08 07:12:20;;;;;;;6.20;5.60;;;21.90;98.70;;;;;;5027038;28;20269;-80
2022/07/08 07:14:47;;;;;;;6.73;6.13;;;22.20;98.90;;;;;;5036560;28;20215;-80
2022/07/08 07:17:17;;;;;;;6.93;6.33;;;21.70;98.00;;;;;;5037509;28;20238;-81
2022/07/08 07:19:44;;;;;;;6.37;3.70;;;22.00;97.90;;;;;;5038769;28;20208;-80
2022/07/08 07:22:12;;;;;;;6.13;5.57;;;21.60;98.80;;;;;;5020382;28;20233;-81
2022/07/08 07:24:39;;;;;;;6.43;5.70;;;21.60;99.30;;;;;;5041124;28;20215;-80
2022/07/08 07:27:06;;;;;;;7.33;5.83;;;21.50;99.90;;;;;;5038329;28;20254;-80
2022/07/08 07:29:33;;;;;;;8.17;5.87;;;21.20;99.90;;;;;;5014871;28;20788;-80
2022/07/08 07:32:00;;;;;;;8.00;6.50;;;20.90;98.80;;;;;;5041367;28;20220;-80
2022/07/08 07:34:27;;;;;;;7.03;6.30;;;20.30;99.90;;;;;;5041261;28;20576;-80
2022/07/08 07:36:54;;;;;;;5.67;2.43;;;20.10;99.90;;;;;;5040209;28;20223;-80
2022/07/08 07:39:22;;;;;;;6.20;5.10;;;20.10;99.90;;;;;;5032034;28;20197;-79
2022/07/08 07:41:49;;;;;;;4.63;2.33;;;20.00;99.90;;;;;;5038525;28;20258;-79
2022/07/08 07:44:16;;;;;;;5.57;2.77;;;19.90;99.90;;;;;;5036106;28;20655;-80
2022/07/08 07:46:43;;;;;;;6.83;6.23;;;19.70;99.90;;;;;;5028478;28;20230;-79
2022/07/08 07:49:10;;;;;;;4.63;3.77;;;19.70;99.90;;;;;;5023957;28;20216;-80
2022/07/08 07:51:37;;;;;;;3.67;2.20;;;19.90;99.90;;;;;;5027366;28;20258;-80
2022/07/08 07:54:05;;;;;;;4.80;2.13;;;20.10;99.90;;;;;;5040109;28;20251;-80
2022/07/08 07:56:33;;;;;;;4.00;2.10;;;20.20;99.90;;;;;;5041212;28;20245;-80
2022/07/08 07:59:03;;;;;;;6.40;2.40;;;20.40;99.90;;;;;;5033384;28;20673;-80
2022/07/08 08:01:29;;;;;;;4.47;2.63;;;20.70;99.90;;;;;;5037675;28;20271;-80
2022/07/08 08:03:56;;;;;;;3.80;2.37;;;20.90;99.90;;;;;;5044593;28;20235;-80
2022/07/08 08:06:23;;;;;;;4.90;2.70;;;20.90;99.80;;;;;;5040350;28;20204;-80
2022/07/08 08:08:50;;;;;;;5.90;2.20;;;20.70;99.90;;;;;;5031567;28;20649;-80
2022/07/08 08:11:17;;;;;;;5.60;2.53;;;20.60;99.90;;;;;;5027652;28;20219;-80
2022/07/08 08:13:45;;;;;;;6.03;2.70;;;20.40;99.90;;;;;;5049560;28;20237;-80
2022/07/08 08:16:12;;;;;;;5.07;2.40;;;20.60;99.90;;;;;;5043126;28;20254;-80
2022/07/08 08:18:38;;;;;;;3.73;2.10;;;20.30;99.90;;;;;;5058725;28;20202;-80
2022/07/08 08:21:06;;;;;;;5.83;5.10;;;20.20;99.90;;;;;;5056268;28;20200;-79
2022/07/08 08:23:32;;;;;;;4.93;2.27;;;20.20;99.90;;;;;;5040251;28;20294;-79
2022/07/08 08:25:59;;;;;;;3.83;2.13;;;20.30;99.90;;;;;;5054831;28;20203;-80
2022/07/08 08:28:26;;;;;;;5.83;2.50;;;20.40;99.90;;;;;;5033936;28;20563;-80
2022/07/08 08:30:54;;;;;;;2.93;2.20;;;20.70;99.90;;;;;;5039838;28;20242;-80
2022/07/08 08:33:21;;;;;;;5.43;2.30;;;21.20;99.90;;;;;;5029959;28;20211;-80
2022/07/08 08:35:47;;;;;;;3.80;2.20;;;21.50;99.70;;;;;;5028293;28;20223;-80
2022/07/08 08:38:14;;;;;;;8.03;2.70;;;21.30;99.90;;;;;;5023293;28;20202;-80
2022/07/08 08:40:42;;;;;;;4.50;2.50;;;21.40;99.90;;;;;;5041751;28;20672;-80
2022/07/08 08:43:09;;;;;;;3.53;2.60;;;21.30;99.90;;;;;;5028232;28;20218;-79
2022/07/08 08:45:37;;;;;;;6.17;3.10;;;21.10;99.90;;;;;;5045829;28;20709;-80
2022/07/08 08:48:08;;;;;;;5.43;2.57;;;20.90;99.90;;;;;;5045754;28;20201;-79
2022/07/08 08:53:27;;;;;;;5.67;2.20;;;20.80;99.90;;;;;;5008642;28;20224;-80
2022/07/08 08:55:55;;;;;;;6.60;5.40;;;21.90;99.90;;;;;;5040353;28;20195;-80
2022/07/08 08:58:22;;;;;;;6.47;5.87;;;22.20;99.90;;;;;;5051433;28;20257;-80
2022/07/08 09:00:49;;;;;;;4.80;2.23;;;22.00;99.10;;;;;;5044880;28;20188;-80
2022/07/08 09:03:17;;;;;;;6.20;2.57;;;21.90;99.10;;;;;;5032993;28;20212;-80
2022/07/08 09:05:45;;;;;;;4.57;4.17;;;21.90;99.40;;;;;;5023391;28;20210;-80
2022/07/08 09:08:12;;;;;;;6.63;5.80;;;21.60;99.90;;;;;;5044398;28;20206;-80
2022/07/08 09:10:39;;;;;;;5.40;4.73;;;21.40;99.90;;;;;;5044558;28;20234;-80
2022/07/08 09:13:10;;;;;;;5.63;4.80;;;21.50;99.60;;;;;;5036130;28;20215;-79
2022/07/08 09:15:39;;;;;;;8.73;6.17;;;22.00;98.70;;;;;;5045099;28;20184;-80
2022/07/08 09:18:08;;;;;;;7.13;5.73;;;22.80;99.90;;;;;;5037598;28;20661;-79
2022/07/08 09:20:40;;;;;;;6.60;6.00;;;23.70;98.50;;;;;;5016972;28;20203;-80
2022/07/08 09:23:11;;;;;;;6.17;5.53;;;24.60;97.50;;;;;;5042790;28;21040;-81
2022/07/08 09:25:38;;;;;;;7.93;4.93;;;25.10;96.70;;;;;;5030150;28;20185;-80
2022/07/08 09:28:05;;;;;;;8.60;5.03;;;25.20;95.70;;;;;;5044531;28;20192;-80
2022/07/08 09:30:32;;;;;;;7.37;5.37;;;25.20;94.20;;;;;;5041644;28;20196;-80
2022/07/08 09:33:01;;;;;;;6.20;5.20;;;25.00;95.80;;;;;;5037987;28;20243;-80
2022/07/08 09:35:33;;;;;;;5.97;5.47;;;24.70;94.20;;;;;;5017996;28;20446;-80
2022/07/08 09:38:04;;;;;;;6.67;5.40;;;24.70;95.80;;;;;;5038803;28;20195;-80
2022/07/08 09:40:31;;;;;;;7.00;5.77;;;24.90;94.80;;;;;;5039696;28;20207;-79
2022/07/08 09:42:58;;;;;;;5.90;5.30;;;24.90;93.50;;;;;;5035233;28;20463;-79
2022/07/08 09:45:32;;;;;;;5.70;5.20;;;24.40;94.30;;;;;;5039177;28;20615;-79
2022/07/08 09:48:03;;;;;;;8.07;5.27;;;24.80;94.90;;;;;;5044329;28;20207;-79
2022/07/08 09:50:38;;;;;;;9.53;5.50;;;24.60;95.00;;;;;;5045898;28;20199;-79
2022/07/08 09:53:14;;;;;;;6.40;5.13;;;24.50;94.60;;;;;;5037765;28;20223;-79
2022/07/08 09:55:42;;;;;;;6.53;5.70;;;24.10;95.30;;;;;;5037019;28;20188;-80
2022/07/08 09:58:12;;;;;;;6.43;5.80;;;24.50;95.50;;;;;;5034421;28;20215;-79
2022/07/08 10:00:39;;;;;;;7.67;5.80;;;24.10;95.60;;;;;;5044639;28;20211;-79
2022/07/08 10:03:06;;;;;;;6.23;5.67;;;23.80;95.40;;;;;;5043902;28;20208;-79
2022/07/08 10:05:34;;;;;;;6.30;5.63;;;23.90;95.30;;;;;;5043175;28;20198;-79
2022/07/08 10:08:01;;;;;;;6.37;5.87;;;23.40;95.70;;;;;;5039033;28;20203;-79
2022/07/08 10:10:32;;;;;;;5.50;5.00;;;23.90;96.00;;;;;;5019823;28;20734;-80
2022/07/08 10:12:59;;;;;;;6.10;5.60;;;24.30;94.40;;;;;;5004584;28;20697;-80
2022/07/08 10:15:28;;;;;;;5.27;4.63;;;24.80;94.20;;;;;;5003525;28;20728;-79
2022/07/08 10:17:58;;;;;;;4.73;2.17;;;24.50;94.30;;;;;;5035149;28;20196;-81
2022/07/08 10:20:31;;;;;;;5.07;2.30;;;24.70;94.60;;;;;;5039232;28;20638;-81
2022/07/08 10:23:02;;;;;;;6.27;4.80;;;25.00;94.20;;;;;;5036798;28;20223;-80
2022/07/08 10:25:31;;;;;;;6.20;5.70;;;25.00;95.10;;;;;;5023308;28;20192;-80
2022/07/08 10:28:09;;;;;;;7.80;7.10;;;24.40;94.00;;;;;;5040457;28;20616;-80
2022/07/08 10:30:51;;;;;;;7.53;4.30;;;24.40;94.00;;;;;;5024037;28;20219;-80
2022/07/08 10:33:25;;;;;;;6.03;5.43;;;23.80;94.50;;;;;;5037911;28;20235;-80
2022/07/08 10:36:02;;;;;;;7.17;6.47;;;23.90;95.40;;;;;;5037836;28;20204;-80
2022/07/08 10:38:30;;;;;;;8.97;6.67;;;23.60;95.60;;;;;;5049009;28;20275;-80
2022/07/08 10:41:04;;;;;;;6.00;5.43;;;23.50;94.50;;;;;;5037419;28;20278;-80
2022/07/08 10:43:31;;;;;;;8.43;5.50;;;23.10;94.00;;;;;;5035437;28;20219;-80
2022/07/08 10:46:03;;;;;;;6.13;5.43;;;22.90;95.10;;;;;;5034586;28;20207;-80
2022/07/08 10:48:46;;;;;;;6.27;5.63;;;23.00;95.30;;;;;;5015713;28;20212;-80
2022/07/08 10:51:58;;;;;;;6.37;5.70;;;22.90;95.40;;;;;;5033241;28;20623;-80
2022/07/08 10:54:26;;;;;;;6.20;5.60;;;22.70;95.80;;;;;;5033366;28;20239;-80
2022/07/08 10:56:56;;;;;;;6.97;5.30;;;22.90;96.20;;;;;;5028892;28;20194;-80
2022/07/08 10:59:25;;;;;;;6.37;5.00;;;23.10;95.40;;;;;;5034277;28;20191;-80
2022/07/08 11:01:53;;;;;;;5.27;4.87;;;22.80;95.70;;;;;;5041051;28;20187;-80
2022/07/08 11:04:21;;;;;;;7.93;5.50;;;23.20;96.20;;;;;;5023580;28;20290;-80
2022/07/08 11:06:48;;;;;;;5.37;4.87;;;23.10;95.50;;;;;;5041844;28;20219;-80
2022/07/08 11:09:17;;;;;;;5.63;5.13;;;23.10;95.60;;;;;;5035599;28;20269;-81
2022/07/08 11:11:46;;;;;;;5.43;4.93;;;22.90;94.40;;;;;;5038145;28;20314;-80
2022/07/08 11:14:14;;;;;;;5.47;2.20;;;22.80;95.30;;;;;;5033116;28;20220;-80
2022/07/08 11:16:41;;;;;;;6.67;5.47;;;22.50;95.30;;;;;;5039304;28;20192;-80
2022/07/08 11:19:08;;;;;;;4.97;2.00;;;22.70;97.20;;;;;;5037468;28;20199;-80
2022/07/08 11:21:35;;;;;;;2.37;1.90;;;22.90;95.80;;;;;;5022657;28;20188;-80
2022/07/08 11:24:02;;;;;;;3.43;2.37;;;23.10;95.70;;;;;;5037328;28;20695;-80
2022/07/08 11:26:30;;;;;;;4.17;1.83;;;23.30;95.50;;;;;;5037223;28;20615;-80
2022/07/08 11:28:57;;;;;;;5.03;2.10;;;23.30;95.60;;;;;;5035005;28;20188;-80
2022/07/08 11:31:29;;;;;;;5.87;1.97;;;22.80;94.50;;;;;;5031248;28;20311;-80
2022/07/08 11:33:55;;;;;;;6.77;4.97;;;22.60;95.70;;;;;;5043166;28;20265;-80
2022/07/08 11:36:22;;;;;;;5.87;5.33;;;22.30;95.20;;;;;;5048752;28;20242;-81
2022/07/08 11:38:50;;;;;;;5.37;4.97;;;22.00;95.50;;;;;;5035203;28;20199;-80
2022/07/08 11:41:20;;;;;;;3.77;2.00;;;21.90;95.90;;;;;;5057613;28;20199;-80
2022/07/08 11:43:48;;;;;;;5.90;5.37;;;22.00;96.40;;;;;;5053931;28;20233;-80
2022/07/08 11:46:17;;;;;;;4.47;2.10;;;21.80;96.30;;;;;;5056691;28;20562;-80
2022/07/08 11:48:45;;;;;;;6.03;2.20;;;21.70;96.10;;;;;;5031777;28;20253;-80
2022/07/08 11:51:14;;;;;;;4.73;2.47;;;21.70;96.20;;;;;;5032571;28;20192;-80
2022/07/08 11:53:41;;;;;;;2.87;2.60;;;21.60;96.20;;;;;;5036110;28;20706;-80
2022/07/08 11:56:08;;;;;;;3.67;3.20;;;21.50;97.60;;;;;;5047569;28;20282;-81
2022/07/08 11:58:35;;;;;;;6.50;5.63;;;21.60;96.70;;;;;;5031645;28;20232;-80
2022/07/08 12:01:03;;;;;;;5.93;5.30;;;21.40;96.90;;;;;;5038286;28;20284;-80
2022/07/08 12:03:30;;;;;;;6.47;5.07;;;21.50;97.70;;;;;;5033870;28;20590;-80
2022/07/08 12:05:58;;;;;;;4.03;2.00;;;21.50;96.60;;;;;;5034534;28;20253;-80
2022/07/08 12:08:25;;;;;;;9.70;2.57;;;21.40;96.90;;;;;;5040093;28;20196;-80
2022/07/08 12:10:52;;;;;;;5.30;2.00;;;21.40;97.50;;;;;;5033196;28;20204;-80
2022/07/08 12:13:18;;;;;;;3.67;2.00;;;21.10;97.30;;;;;;5039594;28;20273;-80
2022/07/08 12:15:45;;;;;;;2.97;2.20;;;21.10;97.50;;;;;;5045913;28;20203;-80
2022/07/08 12:18:12;;;;;;;5.50;3.77;;;21.40;97.70;;;;;;5038771;28;20691;-80
2022/07/08 12:20:41;;;;;;;5.63;5.00;;;21.70;97.80;;;;;;5025695;28;20650;-80
2022/07/08 12:23:12;;;;;;;6.27;5.00;;;21.60;95.80;;;;;;5030276;28;20219;-80
2022/07/08 12:25:49;;;;;;;5.70;5.20;;;21.20;97.50;;;;;;5039908;28;20253;-80
2022/07/08 12:28:22;;;;;;;7.97;5.33;;;21.40;97.60;;;;;;5022971;28;20215;-80
2022/07/08 12:30:49;;;;;;;5.77;5.20;;;21.30;97.50;;;;;;5038836;28;20251;-80
2022/07/08 12:33:25;;;;;;;6.60;2.40;;;21.20;97.50;;;;;;5031984;28;20236;-79
2022/07/08 12:35:52;;;;;;;5.00;2.20;;;21.30;97.30;;;;;;5035877;28;20211;-80
2022/07/08 12:38:24;;;;;;;2.97;1.90;;;21.40;97.70;;;;;;5015387;28;20730;-80
2022/07/08 12:40:51;;;;;;;3.77;2.10;;;21.60;98.00;;;;;;5039593;28;20329;-80
2022/07/08 12:43:18;;;;;;;4.97;2.40;;;21.70;97.40;;;;;;5037651;28;20778;-80
2022/07/08 12:45:51;;;;;;;8.43;2.50;;;21.60;97.60;;;;;;5030827;28;20222;-80
2022/07/08 12:48:17;;;;;;;3.35;1.95;;;21.80;97.60;;;;;;5030306;28;20802;-80
2022/07/08 12:50:44;;;;;;;5.47;2.00;;;21.70;97.50;;;;;;5025969;28;20220;-81
2022/07/08 12:53:11;;;;;;;2.30;1.80;;;21.50;96.30;;;;;;5017506;28;20652;-80